Cape Town International Airport

Airport
ICAO code: 
FACT
IATA Code: 
CPT
Summary
ICAO Region: 
AFI
Territory: 
Location: 
, Western Cape
Serving: 
Cape Town
Elevation: 
151 ft
Coordinates: 
Aerial View: 
33° 57' 53.302" S, 18° 36' 6.001" E
Metar
Observation
FACT 031100Z 21013KT 160V230 9999 FEW035 23/11 Q1015 NOSIG
Station
Cape Town, Cape Town International Airport
Date/Time
2021-12-03 11:00:00
Wind direction
210°
Wind speed
13 kts
Lowest cloud amount
few clouds
Temperature
23°C
Dew point
11°C
Humidity
46%
QNH
1015 hPa
Weather condition
n/a

Runways

Designator Length Width Surface Rops
16/34 1701 46 ASP Yes/Yes
1/19 3201 61 ASP Yes/Yes
Airport map: 
Aerial View: 

Accidents and Serious Incidents at or in the vicinity of FACT

SKYbrary Partners:

Safety knowledge contributed by: